Time;durP1;ratioP1;P1;durP2;ratioP2;P2;SDS_P1;SDS_P2;PMS_P1;PMS_P2;Temp;Humidity;BMP_temperature;BMP_pressure;BME280_temperature;BME280_humidity;BME280_pressure;Samples;Min_cycle;Max_cycle;Signal;HPM_P1;HPM_P2
2021/08/11 00:01:17;;;;;;;4.82;4.32;;;20.60;73.30;;;;;;1469830;40;20045;-70
2021/08/11 00:02:38;;;;;;;4.35;3.95;;;20.60;73.30;;;;;;1465036;40;20038;-70
2021/08/11 00:03:59;;;;;;;5.15;4.65;;;20.60;73.30;;;;;;1466598;40;20033;-70
2021/08/11 00:05:20;;;;;;;5.72;4.78;;;20.60;73.30;;;;;;1468466;40;20042;-70
2021/08/11 00:06:41;;;;;;;7.40;6.22;;;20.50;73.20;;;;;;1466493;40;20026;-70
2021/08/11 00:08:02;;;;;;;4.97;4.50;;;20.50;73.30;;;;;;1466903;40;20063;-68
2021/08/11 00:09:23;;;;;;;5.55;4.95;;;20.50;73.30;;;;;;1484533;40;20043;-70
2021/08/11 00:10:43;;;;;;;5.57;5.07;;;20.50;73.30;;;;;;1471225;40;20037;-70
2021/08/11 00:12:05;;;;;;;7.03;5.57;;;20.50;73.30;;;;;;1467813;40;20022;-70
2021/08/11 00:13:26;;;;;;;7.32;5.63;;;20.50;73.40;;;;;;1467872;40;20038;-70
2021/08/11 00:14:47;;;;;;;7.63;5.82;;;20.50;73.40;;;;;;1467887;40;20112;-69
2021/08/11 00:16:09;;;;;;;6.75;5.47;;;20.50;73.50;;;;;;1467183;40;20022;-69
2021/08/11 00:17:30;;;;;;;6.43;5.82;;;20.40;73.50;;;;;;1467989;40;20543;-70
2021/08/11 00:18:51;;;;;;;6.15;5.55;;;20.40;73.60;;;;;;1467361;40;20031;-70
2021/08/11 00:20:12;;;;;;;7.32;6.00;;;20.50;73.80;;;;;;1466590;40;20293;-70
2021/08/11 00:21:33;;;;;;;5.25;4.75;;;20.40;73.70;;;;;;1468128;40;20521;-70
2021/08/11 00:22:55;;;;;;;5.00;4.18;;;20.40;73.60;;;;;;1466952;40;20030;-70
2021/08/11 00:24:16;;;;;;;5.03;4.32;;;20.40;73.50;;;;;;1469144;40;20306;-70
2021/08/11 00:25:37;;;;;;;6.45;5.22;;;20.40;73.50;;;;;;1467094;40;20046;-70
2021/08/11 00:26:58;;;;;;;6.45;5.50;;;20.40;73.60;;;;;;1468005;40;20028;-70
2021/08/11 00:28:24;;;;;;;5.90;5.30;;;20.50;73.70;;;;;;1467209;40;20042;-70
2021/08/11 00:29:45;;;;;;;7.13;5.32;;;20.40;73.90;;;;;;1470814;40;20042;-70
2021/08/11 00:31:06;;;;;;;7.10;5.70;;;20.40;73.70;;;;;;1467862;40;20034;-70
2021/08/11 00:32:27;;;;;;;7.63;5.88;;;20.40;73.90;;;;;;1467732;40;20034;-70
2021/08/11 00:33:48;;;;;;;6.38;5.75;;;20.40;74.00;;;;;;1468337;40;20045;-70
2021/08/11 00:35:10;;;;;;;6.78;5.90;;;20.40;74.10;;;;;;1462568;40;20400;-70
2021/08/11 00:36:31;;;;;;;7.32;6.03;;;20.40;74.10;;;;;;1464116;40;20050;-70
2021/08/11 00:37:52;;;;;;;6.45;5.80;;;20.40;74.20;;;;;;1464787;40;21043;-70
2021/08/11 00:39:13;;;;;;;7.03;5.78;;;20.40;74.20;;;;;;1467565;40;20037;-70
2021/08/11 00:40:34;;;;;;;6.55;5.85;;;20.30;74.10;;;;;;1466689;40;20062;-70
2021/08/11 00:41:55;;;;;;;7.35;5.72;;;20.30;74.20;;;;;;1464473;40;20038;-70
2021/08/11 00:43:16;;;;;;;6.15;5.55;;;20.30;74.20;;;;;;1467168;40;20661;-70
2021/08/11 00:44:37;;;;;;;6.95;5.38;;;20.30;74.20;;;;;;1465897;40;20030;-69
2021/08/11 00:45:58;;;;;;;6.55;5.75;;;20.30;74.00;;;;;;1465853;40;20332;-70
2021/08/11 00:47:21;;;;;;;8.45;5.75;;;20.30;74.00;;;;;;1466350;40;20070;-70
2021/08/11 00:48:42;;;;;;;6.03;4.57;;;20.30;74.10;;;;;;1461505;40;20046;-70
2021/08/11 00:50:07;;;;;;;7.43;5.57;;;20.30;73.90;;;;;;1467768;40;20021;-70
2021/08/11 00:51:28;;;;;;;6.75;5.93;;;20.30;74.10;;;;;;1467065;40;20042;-69
2021/08/11 00:52:48;;;;;;;6.30;5.70;;;20.30;74.00;;;;;;1468636;40;20037;-69
2021/08/11 00:54:11;;;;;;;6.20;5.60;;;20.30;74.00;;;;;;1465891;40;20115;-69
2021/08/11 00:55:36;;;;;;;5.88;5.28;;;20.30;74.20;;;;;;1471077;40;20041;-69
2021/08/11 00:56:57;;;;;;;6.93;5.72;;;20.30;74.30;;;;;;1465797;40;20022;-69
2021/08/11 00:58:19;;;;;;;5.68;5.07;;;20.20;74.00;;;;;;1466512;40;20034;-70
2021/08/11 00:59:42;;;;;;;6.55;5.65;;;20.20;74.10;;;;;;1467483;40;20366;-70
2021/08/11 01:01:03;;;;;;;6.15;5.55;;;20.20;74.10;;;;;;1468787;40;20029;-70
2021/08/11 01:02:25;;;;;;;6.25;5.43;;;20.20;74.10;;;;;;1465031;40;20035;-70
2021/08/11 01:03:46;;;;;;;6.15;5.55;;;20.20;74.00;;;;;;1461159;40;20116;-70
2021/08/11 01:05:08;;;;;;;7.10;5.47;;;20.20;74.00;;;;;;1463464;40;20047;-70
2021/08/11 01:06:30;;;;;;;6.00;5.40;;;20.20;74.00;;;;;;1467657;40;20039;-70
2021/08/11 01:07:52;;;;;;;5.50;4.90;;;20.20;74.10;;;;;;1467343;40;20037;-70
2021/08/11 01:09:15;;;;;;;5.97;5.38;;;20.10;74.00;;;;;;1466269;40;20525;-70
2021/08/11 01:10:37;;;;;;;5.70;5.05;;;20.20;74.00;;;;;;1462680;40;20035;-69
2021/08/11 01:11:58;;;;;;;7.72;4.85;;;20.10;73.90;;;;;;1465381;40;20034;-70
2021/08/11 01:13:21;;;;;;;6.45;5.25;;;20.10;73.90;;;;;;1466517;40;20419;-70
2021/08/11 01:14:41;;;;;;;7.30;5.90;;;20.10;73.80;;;;;;1464582;40;20026;-69
2021/08/11 01:16:03;;;;;;;7.68;6.05;;;20.10;73.80;;;;;;1464424;40;20393;-69
2021/08/11 01:17:26;;;;;;;7.22;5.68;;;20.10;74.00;;;;;;1466821;40;20043;-70
2021/08/11 01:18:47;;;;;;;8.18;6.50;;;20.10;74.20;;;;;;1466077;40;20038;-70
2021/08/11 01:20:09;;;;;;;7.03;6.32;;;20.10;74.30;;;;;;1465142;40;20045;-70
2021/08/11 01:21:38;;;;;;;7.05;6.35;;;20.10;74.50;;;;;;1471508;40;20379;-70
2021/08/11 01:23:05;;;;;;;6.90;6.13;;;20.10;75.00;;;;;;1469123;40;20029;-70
2021/08/11 01:24:29;;;;;;;6.25;5.57;;;20.10;74.80;;;;;;1475108;40;20032;-70
2021/08/11 01:25:57;;;;;;;7.25;6.10;;;20.10;74.90;;;;;;1464522;40;20026;-69
2021/08/11 01:27:49;;;;;;;6.85;6.00;;;20.10;75.00;;;;;;1466389;40;20053;-70
2021/08/11 01:29:16;;;;;;;6.93;6.22;;;20.10;75.50;;;;;;1465087;40;20324;-70
2021/08/11 01:30:47;;;;;;;6.15;5.25;;;20.10;75.00;;;;;;1473602;40;20032;-70
2021/08/11 01:32:22;;;;;;;7.20;5.30;;;20.10;75.00;;;;;;1484744;40;20024;-69
2021/08/11 01:33:45;;;;;;;8.05;6.25;;;20.10;75.00;;;;;;1465084;40;20070;-70
2021/08/11 01:35:11;;;;;;;7.38;6.15;;;20.10;74.60;;;;;;1466270;40;20058;-70
2021/08/11 01:36:48;;;;;;;7.35;5.72;;;20.10;74.90;;;;;;1465106;40;20026;-70
2021/08/11 01:38:14;;;;;;;8.60;6.57;;;20.10;75.00;;;;;;1463328;40;20023;-70
2021/08/11 01:39:41;;;;;;;7.85;6.82;;;20.10;75.00;;;;;;1477335;40;20049;-70
2021/08/11 01:41:05;;;;;;;6.55;5.30;;;20.10;75.00;;;;;;1466486;40;20025;-69
2021/08/11 01:42:30;;;;;;;5.95;5.35;;;20.10;74.90;;;;;;1467517;40;20046;-70
2021/08/11 01:43:51;;;;;;;7.10;5.35;;;20.10;75.00;;;;;;1466948;40;20041;-69
2021/08/11 01:45:20;;;;;;;9.25;5.47;;;20.10;74.80;;;;;;1466101;40;20030;-70
2021/08/11 01:46:43;;;;;;;6.40;5.25;;;20.10;74.90;;;;;;1460451;40;20415;-70
2021/08/11 01:48:11;;;;;;;5.47;4.97;;;20.10;74.80;;;;;;1463596;40;20034;-70
2021/08/11 01:49:35;;;;;;;5.63;4.82;;;20.10;75.00;;;;;;1464376;40;20038;-70
2021/08/11 01:50:57;;;;;;;6.03;5.07;;;20.10;74.80;;;;;;1465082;40;20026;-70
2021/08/11 01:52:19;;;;;;;8.25;5.78;;;20.10;75.40;;;;;;1469496;40;20034;-70
2021/08/11 01:53:40;;;;;;;5.88;5.28;;;20.10;74.60;;;;;;1474141;40;20031;-70
2021/08/11 01:55:02;;;;;;;7.35;5.47;;;20.00;74.40;;;;;;1465313;40;20030;-69
2021/08/11 01:56:23;;;;;;;6.55;5.82;;;20.00;74.40;;;;;;1467270;40;20030;-70
2021/08/11 01:57:50;;;;;;;6.60;5.90;;;20.00;74.30;;;;;;1467808;40;20093;-70
2021/08/11 01:59:11;;;;;;;6.78;5.68;;;20.00;74.50;;;;;;1465284;40;20026;-70
2021/08/11 02:00:33;;;;;;;6.18;5.57;;;20.00;74.30;;;;;;1464689;40;20034;-70
2021/08/11 02:01:54;;;;;;;6.13;5.53;;;20.00;74.20;;;;;;1465846;40;20511;-70
2021/08/11 02:03:20;;;;;;;6.28;5.57;;;20.00;74.20;;;;;;1472710;40;20024;-70
2021/08/11 02:04:41;;;;;;;6.38;5.30;;;20.00;74.30;;;;;;1467715;40;20094;-70
2021/08/11 02:06:03;;;;;;;6.45;5.32;;;19.90;74.20;;;;;;1467506;40;20460;-70
2021/08/11 02:07:24;;;;;;;6.47;5.47;;;20.00;74.30;;;;;;1461334;40;20041;-70
2021/08/11 02:08:46;;;;;;;6.13;5.18;;;20.00;74.20;;;;;;1470512;40;20077;-70
2021/08/11 02:10:10;;;;;;;9.45;4.90;;;19.90;74.20;;;;;;1465970;40;20034;-70
2021/08/11 02:11:37;;;;;;;6.18;5.22;;;19.90;74.20;;;;;;1468169;40;20044;-70
2021/08/11 02:13:00;;;;;;;9.73;5.93;;;19.90;74.30;;;;;;1470634;40;20080;-70
2021/08/11 02:14:22;;;;;;;7.28;5.90;;;19.90;74.20;;;;;;1469073;40;20131;-70
2021/08/11 02:15:47;;;;;;;7.93;7.13;;;19.90;74.40;;;;;;1467195;40;20031;-70
2021/08/11 02:17:08;;;;;;;6.35;5.72;;;19.90;74.80;;;;;;1466665;40;20033;-70
2021/08/11 02:18:28;;;;;;;6.53;5.90;;;19.90;74.60;;;;;;1468075;40;20077;-70
2021/08/11 02:19:49;;;;;;;7.40;6.38;;;19.90;74.70;;;;;;1464997;40;20040;-70
2021/08/11 02:21:10;;;;;;;9.85;7.95;;;19.80;74.60;;;;;;1465320;40;20027;-70
2021/08/11 02:22:31;;;;;;;10.70;7.63;;;19.80;74.70;;;;;;1466577;40;20040;-70
2021/08/11 02:23:52;;;;;;;8.52;7.28;;;19.80;74.90;;;;;;1467824;40;20027;-69
2021/08/11 02:25:14;;;;;;;8.95;7.75;;;19.80;75.00;;;;;;1466000;40;20048;-70
2021/08/11 02:26:50;;;;;;;8.73;7.13;;;19.80;75.10;;;;;;1478544;40;20041;-69
2021/08/11 02:28:19;;;;;;;7.55;6.68;;;19.80;75.30;;;;;;1467741;40;20022;-70
2021/08/11 02:29:55;;;;;;;9.15;6.72;;;19.80;75.30;;;;;;1468105;40;20049;-70
2021/08/11 02:31:36;;;;;;;6.70;6.00;;;19.80;75.40;;;;;;1467592;40;20333;-69
2021/08/11 02:33:09;;;;;;;5.82;5.07;;;19.80;75.40;;;;;;1466307;40;20045;-70
2021/08/11 02:34:53;;;;;;;6.80;6.10;;;19.80;75.40;;;;;;1469595;40;20107;-70
2021/08/11 02:36:22;;;;;;;8.10;6.50;;;19.80;75.50;;;;;;1467347;40;20379;-69
2021/08/11 02:37:51;;;;;;;7.55;6.10;;;19.80;75.10;;;;;;1467136;40;20352;-70
2021/08/11 02:39:14;;;;;;;8.75;6.32;;;19.80;74.90;;;;;;1467139;40;20026;-70
2021/08/11 02:41:01;;;;;;;9.57;7.00;;;19.70;75.00;;;;;;1466038;40;20384;-70
2021/08/11 02:42:41;;;;;;;8.50;6.05;;;19.80;75.70;;;;;;1468208;40;20441;-70
2021/08/11 02:44:16;;;;;;;9.45;6.97;;;19.70;76.40;;;;;;1468955;40;20412;-70
2021/08/11 02:45:40;;;;;;;8.93;5.93;;;19.70;75.50;;;;;;1466347;40;20049;-70
2021/08/11 02:47:02;;;;;;;7.70;6.63;;;19.70;75.10;;;;;;1465164;40;20062;-70
2021/08/11 02:48:24;;;;;;;7.38;6.13;;;19.70;75.20;;;;;;1466767;40;20027;-70
2021/08/11 02:49:45;;;;;;;7.50;6.47;;;19.70;75.30;;;;;;1468300;40;20041;-70
2021/08/11 02:51:08;;;;;;;9.23;6.63;;;19.70;75.40;;;;;;1465039;40;20023;-69
2021/08/11 02:52:31;;;;;;;7.55;6.28;;;19.70;75.50;;;;;;1484526;40;20036;-70
2021/08/11 02:53:53;;;;;;;6.22;5.63;;;19.70;75.50;;;;;;1472523;40;20038;-70
2021/08/11 02:55:15;;;;;;;8.70;6.10;;;19.70;75.50;;;;;;1466279;40;20034;-70
2021/08/11 02:56:39;;;;;;;6.43;5.40;;;19.60;75.50;;;;;;1466003;40;20359;-69
2021/08/11 02:58:00;;;;;;;8.55;6.28;;;19.60;75.50;;;;;;1467589;40;20041;-70
2021/08/11 02:59:23;;;;;;;6.88;6.03;;;19.60;75.50;;;;;;1467031;40;20026;-70
2021/08/11 03:00:47;;;;;;;8.43;5.60;;;19.60;75.60;;;;;;1482141;40;20025;-70
2021/08/11 03:02:09;;;;;;;6.88;5.25;;;19.60;75.60;;;;;;1471664;40;20067;-70
2021/08/11 03:03:30;;;;;;;6.13;5.53;;;19.60;75.60;;;;;;1472619;40;20045;-70
2021/08/11 03:04:51;;;;;;;7.13;6.22;;;19.60;75.50;;;;;;1472471;40;20027;-70
2021/08/11 03:06:12;;;;;;;6.63;5.90;;;19.60;75.50;;;;;;1466490;40;20042;-70
2021/08/11 03:07:34;;;;;;;7.13;5.57;;;19.60;75.50;;;;;;1471342;40;20049;-69
2021/08/11 03:08:55;;;;;;;6.90;5.30;;;19.60;75.40;;;;;;1466848;40;20271;-69
2021/08/11 03:10:16;;;;;;;6.63;5.35;;;19.60;76.10;;;;;;1466364;40;20062;-69
2021/08/11 03:11:38;;;;;;;6.30;5.55;;;19.60;75.40;;;;;;1483518;39;20043;-69
2021/08/11 03:12:59;;;;;;;6.75;5.70;;;19.60;75.40;;;;;;1470875;40;20373;-69
2021/08/11 03:14:21;;;;;;;7.90;5.80;;;19.60;75.30;;;;;;1467111;40;20372;-69
2021/08/11 03:15:43;;;;;;;6.10;5.45;;;19.60;75.30;;;;;;1466140;40;20066;-69
2021/08/11 03:17:08;;;;;;;7.20;6.30;;;19.50;75.10;;;;;;1464712;40;20360;-69
2021/08/11 03:18:33;;;;;;;8.45;5.95;;;19.50;75.20;;;;;;1467047;40;20046;-69
2021/08/11 03:19:54;;;;;;;6.68;5.45;;;19.50;75.20;;;;;;1468474;40;20031;-69
2021/08/11 03:21:15;;;;;;;5.82;5.22;;;19.50;75.10;;;;;;1466258;40;20030;-69
2021/08/11 03:22:36;;;;;;;5.60;5.10;;;19.50;75.00;;;;;;1460786;40;20043;-69
2021/08/11 03:23:57;;;;;;;6.60;5.55;;;19.50;75.00;;;;;;1464209;40;20363;-69
2021/08/11 03:25:18;;;;;;;6.85;5.03;;;19.50;75.00;;;;;;1466556;40;20050;-69
2021/08/11 03:26:38;;;;;;;5.00;4.50;;;19.50;75.00;;;;;;1467767;40;20034;-69
2021/08/11 03:27:59;;;;;;;6.72;5.38;;;19.50;75.00;;;;;;1465376;40;20023;-69
2021/08/11 03:29:20;;;;;;;6.78;5.03;;;19.40;74.80;;;;;;1466633;40;20041;-69
2021/08/11 03:30:42;;;;;;;5.75;5.15;;;19.50;75.00;;;;;;1474116;40;20040;-69
2021/08/11 03:32:03;;;;;;;5.95;4.97;;;19.40;74.90;;;;;;1465211;40;20274;-69
2021/08/11 03:33:24;;;;;;;7.82;5.63;;;19.40;74.90;;;;;;1463160;40;20042;-69
2021/08/11 03:34:45;;;;;;;7.22;5.88;;;19.40;74.90;;;;;;1465166;40;20042;-69
2021/08/11 03:36:06;;;;;;;6.47;5.53;;;19.40;74.90;;;;;;1461815;40;20081;-69
2021/08/11 03:37:27;;;;;;;6.25;5.63;;;19.40;74.90;;;;;;1466983;40;20037;-69
2021/08/11 03:38:48;;;;;;;6.70;5.57;;;19.40;74.90;;;;;;1466131;40;20595;-69
2021/08/11 03:40:09;;;;;;;6.07;5.13;;;19.40;74.90;;;;;;1477980;40;20513;-69
2021/08/11 03:41:30;;;;;;;5.07;4.57;;;19.40;74.90;;;;;;1467348;40;20206;-69
2021/08/11 03:42:51;;;;;;;6.13;5.50;;;19.40;74.90;;;;;;1464599;40;20038;-69
2021/08/11 03:44:12;;;;;;;6.28;4.75;;;19.30;74.90;;;;;;1469066;40;20385;-69
2021/08/11 03:45:33;;;;;;;5.50;5.00;;;19.40;74.90;;;;;;1467725;40;20037;-69
2021/08/11 03:46:54;;;;;;;5.90;5.25;;;19.30;74.80;;;;;;1467597;40;20046;-69
2021/08/11 03:48:14;;;;;;;5.90;4.90;;;19.30;74.80;;;;;;1477706;40;20024;-69
2021/08/11 03:49:35;;;;;;;6.07;5.10;;;19.30;74.70;;;;;;1469519;40;20257;-69
2021/08/11 03:50:56;;;;;;;6.50;5.45;;;19.30;74.70;;;;;;1466906;40;20042;-69
2021/08/11 03:52:17;;;;;;;6.07;5.35;;;19.30;74.60;;;;;;1467856;40;20033;-69
2021/08/11 03:53:39;;;;;;;6.68;5.03;;;19.30;74.60;;;;;;1467708;40;20046;-69
2021/08/11 03:55:00;;;;;;;6.45;5.15;;;19.20;74.50;;;;;;1469333;40;20019;-69
2021/08/11 03:56:21;;;;;;;7.18;5.00;;;19.20;74.50;;;;;;1466627;40;20037;-68
2021/08/11 03:57:42;;;;;;;5.82;5.22;;;19.20;74.50;;;;;;1465949;40;20081;-69
2021/08/11 03:59:05;;;;;;;5.95;5.35;;;19.20;74.60;;;;;;1468064;40;20034;-69
2021/08/11 04:00:26;;;;;;;6.97;5.50;;;19.20;74.60;;;;;;1475286;40;20049;-69
2021/08/11 04:01:50;;;;;;;7.45;6.32;;;19.20;74.50;;;;;;1464061;40;20039;-69
2021/08/11 04:03:11;;;;;;;7.90;7.10;;;19.20;74.60;;;;;;1465230;40;20029;-69
2021/08/11 04:04:33;;;;;;;6.97;5.78;;;19.20;74.50;;;;;;1467722;40;20558;-69
2021/08/11 04:05:54;;;;;;;7.13;5.80;;;19.20;74.60;;;;;;1467038;40;20045;-69
2021/08/11 04:07:15;;;;;;;6.72;5.63;;;19.20;74.60;;;;;;1467060;40;20219;-69
2021/08/11 04:08:36;;;;;;;5.57;5.07;;;19.20;74.60;;;;;;1477406;40;20058;-69
2021/08/11 04:09:57;;;;;;;6.90;5.60;;;19.10;74.50;;;;;;1467876;40;20370;-69
2021/08/11 04:11:18;;;;;;;7.03;5.53;;;19.10;74.50;;;;;;1466841;40;20259;-69
2021/08/11 04:12:39;;;;;;;6.78;6.07;;;19.10;74.50;;;;;;1467137;40;20114;-69
2021/08/11 04:14:00;;;;;;;6.18;5.57;;;19.10;74.60;;;;;;1467330;40;20026;-69
2021/08/11 04:15:22;;;;;;;6.20;5.60;;;19.10;74.70;;;;;;1467882;40;20405;-69
2021/08/11 04:16:43;;;;;;;7.10;5.18;;;19.10;74.70;;;;;;1467716;40;20628;-69
2021/08/11 04:18:04;;;;;;;7.28;5.80;;;19.10;74.80;;;;;;1469562;40;20024;-69
2021/08/11 04:19:24;;;;;;;7.13;6.00;;;19.10;74.90;;;;;;1467736;40;20076;-69
2021/08/11 04:20:45;;;;;;;7.18;6.00;;;19.00;74.90;;;;;;1467289;40;20026;-69
2021/08/11 04:22:06;;;;;;;6.60;5.43;;;19.00;75.00;;;;;;1468726;40;20467;-69
2021/08/11 04:23:27;;;;;;;6.18;5.57;;;19.00;75.10;;;;;;1468814;40;20026;-69
2021/08/11 04:24:48;;;;;;;5.85;5.30;;;19.00;75.00;;;;;;1466655;40;20327;-69
2021/08/11 04:26:09;;;;;;;6.15;5.22;;;19.00;75.00;;;;;;1468420;40;20033;-68
2021/08/11 04:27:30;;;;;;;8.70;5.68;;;19.00;75.10;;;;;;1464731;40;20041;-69
2021/08/11 04:28:51;;;;;;;6.13;5.53;;;19.00;75.10;;;;;;1465895;40;20041;-69
2021/08/11 04:30:12;;;;;;;5.63;4.95;;;19.00;75.10;;;;;;1472040;40;20047;-69
2021/08/11 04:31:33;;;;;;;6.05;5.18;;;19.00;75.20;;;;;;1466148;40;20062;-69
2021/08/11 04:32:54;;;;;;;5.65;4.95;;;19.00;75.20;;;;;;1469471;40;20050;-69
2021/08/11 04:34:14;;;;;;;7.72;5.32;;;19.00;75.20;;;;;;1464570;40;20034;-69
2021/08/11 04:35:39;;;;;;;6.15;5.50;;;19.00;75.30;;;;;;1467391;40;20059;-69
2021/08/11 04:37:00;;;;;;;6.22;5.20;;;19.00;75.50;;;;;;1466788;40;20111;-69
2021/08/11 04:38:21;;;;;;;9.70;5.13;;;19.00;75.40;;;;;;1473431;40;20027;-69
2021/08/11 04:39:42;;;;;;;6.57;5.38;;;19.00;75.40;;;;;;1466993;40;20030;-69
2021/08/11 04:41:03;;;;;;;5.72;5.18;;;18.90;75.40;;;;;;1466664;40;20468;-69
2021/08/11 04:42:24;;;;;;;6.72;6.00;;;19.00;75.60;;;;;;1469127;40;20037;-69
2021/08/11 04:43:44;;;;;;;5.68;5.10;;;18.90;75.50;;;;;;1467108;40;20088;-69
2021/08/11 04:45:07;;;;;;;5.80;5.20;;;18.90;75.60;;;;;;1469033;40;20046;-69
2021/08/11 04:46:27;;;;;;;5.93;5.30;;;19.00;75.70;;;;;;1467431;40;20279;-69
2021/08/11 04:47:48;;;;;;;6.30;5.65;;;19.00;75.70;;;;;;1468287;40;20078;-69
2021/08/11 04:49:09;;;;;;;5.95;5.22;;;18.90;75.70;;;;;;1467485;40;20072;-69
2021/08/11 04:50:30;;;;;;;6.50;5.88;;;19.00;75.80;;;;;;1468558;40;20068;-69
2021/08/11 04:51:51;;;;;;;7.18;4.68;;;19.00;75.90;;;;;;1468223;40;20062;-69
2021/08/11 04:53:12;;;;;;;5.68;4.47;;;19.00;75.90;;;;;;1468912;40;20050;-69
2021/08/11 04:54:32;;;;;;;5.38;4.88;;;19.00;75.90;;;;;;1464164;40;20051;-69
2021/08/11 04:55:53;;;;;;;5.65;4.82;;;19.00;75.90;;;;;;1467073;40;20120;-69
2021/08/11 04:57:14;;;;;;;7.30;4.93;;;19.00;76.00;;;;;;1466990;40;20030;-69
2021/08/11 04:58:35;;;;;;;6.78;5.45;;;19.00;76.00;;;;;;1467739;40;20165;-69
2021/08/11 04:59:56;;;;;;;5.70;5.07;;;19.00;76.10;;;;;;1466962;40;20375;-69
2021/08/11 05:01:17;;;;;;;4.80;4.30;;;19.00;76.00;;;;;;1467186;40;20111;-69
2021/08/11 05:02:38;;;;;;;6.25;4.90;;;19.00;76.10;;;;;;1464070;40;20038;-69
2021/08/11 05:03:59;;;;;;;5.82;4.90;;;19.00;76.20;;;;;;1465494;40;20018;-69
2021/08/11 05:05:20;;;;;;;4.95;4.45;;;19.00;76.30;;;;;;1472321;40;20364;-69
2021/08/11 05:06:41;;;;;;;7.85;4.68;;;19.00;76.30;;;;;;1467878;40;20076;-69
2021/08/11 05:08:02;;;;;;;6.80;5.65;;;19.00;76.40;;;;;;1465498;40;20027;-69
2021/08/11 05:09:23;;;;;;;7.35;5.72;;;19.00;76.50;;;;;;1467427;40;20042;-69
2021/08/11 05:10:44;;;;;;;6.60;5.30;;;19.00;76.70;;;;;;1464703;40;20034;-69
2021/08/11 05:12:05;;;;;;;7.30;6.20;;;19.00;76.90;;;;;;1467870;40;20034;-70
2021/08/11 05:13:26;;;;;;;7.53;5.50;;;19.00;77.10;;;;;;1467775;40;20071;-70
2021/08/11 05:14:47;;;;;;;5.63;4.93;;;19.10;77.30;;;;;;1466248;40;20026;-69
2021/08/11 05:16:08;;;;;;;6.10;5.50;;;19.10;77.50;;;;;;1475634;40;20093;-69
2021/08/11 05:17:29;;;;;;;6.65;5.82;;;19.10;77.60;;;;;;1468869;40;20033;-69
2021/08/11 05:18:50;;;;;;;5.20;4.45;;;19.10;77.80;;;;;;1468386;40;20177;-69
2021/08/11 05:20:12;;;;;;;6.10;5.53;;;19.20;78.00;;;;;;1469673;40;20026;-69
2021/08/11 05:21:34;;;;;;;7.13;5.15;;;19.20;78.20;;;;;;1470017;40;20037;-69
2021/08/11 05:22:55;;;;;;;5.75;5.15;;;19.20;78.30;;;;;;1466610;40;20139;-69
2021/08/11 05:24:17;;;;;;;7.38;4.63;;;19.20;78.30;;;;;;1471678;40;20737;-69
2021/08/11 05:25:38;;;;;;;7.07;5.20;;;19.20;78.40;;;;;;1468147;40;20096;-69
2021/08/11 05:26:59;;;;;;;7.38;5.00;;;19.20;78.50;;;;;;1467931;40;20018;-69
2021/08/11 05:28:20;;;;;;;6.10;4.90;;;19.30;78.60;;;;;;1467398;40;20042;-69
2021/08/11 05:29:42;;;;;;;6.50;5.38;;;19.30;78.70;;;;;;1470954;40;20038;-69
2021/08/11 05:31:03;;;;;;;8.32;5.32;;;19.30;78.90;;;;;;1468018;40;20029;-69
2021/08/11 05:32:24;;;;;;;6.90;5.43;;;19.30;78.90;;;;;;1467935;40;20480;-70
2021/08/11 05:33:45;;;;;;;5.38;4.07;;;19.30;79.00;;;;;;1461890;40;20043;-69
2021/08/11 05:35:06;;;;;;;5.00;4.50;;;19.40;79.00;;;;;;1464542;40;20045;-69
2021/08/11 05:36:27;;;;;;;5.22;4.20;;;19.40;79.00;;;;;;1468976;40;20562;-69
2021/08/11 05:37:48;;;;;;;5.22;3.63;;;19.40;79.00;;;;;;1465379;40;20042;-69
2021/08/11 05:39:09;;;;;;;4.85;4.18;;;19.40;79.00;;;;;;1474421;40;20028;-69
2021/08/11 05:40:30;;;;;;;5.20;4.10;;;19.40;79.10;;;;;;1466780;40;20056;-69
2021/08/11 05:41:51;;;;;;;5.25;4.50;;;19.50;79.20;;;;;;1467570;40;20060;-69
2021/08/11 05:43:12;;;;;;;4.95;4.40;;;19.50;79.20;;;;;;1465349;40;20038;-69
2021/08/11 05:44:33;;;;;;;4.63;3.95;;;19.50;79.20;;;;;;1466247;40;20291;-69
2021/08/11 05:45:54;;;;;;;7.05;5.03;;;19.50;79.30;;;;;;1466242;40;20034;-69
2021/08/11 05:47:15;;;;;;;5.05;4.55;;;19.50;79.30;;;;;;1463830;40;20072;-69
2021/08/11 05:48:36;;;;;;;5.82;3.83;;;19.60;79.40;;;;;;1461697;40;20035;-69
2021/08/11 05:49:57;;;;;;;6.88;5.10;;;19.60;79.40;;;;;;1459880;40;20030;-69
2021/08/11 05:51:18;;;;;;;5.57;4.35;;;19.60;79.40;;;;;;1463641;40;20035;-69
2021/08/11 05:52:38;;;;;;;5.55;3.92;;;19.60;79.30;;;;;;1461378;40;20074;-69
2021/08/11 05:54:01;;;;;;;6.72;4.90;;;19.70;79.40;;;;;;1476976;40;20493;-69
2021/08/11 05:55:22;;;;;;;4.93;3.90;;;19.70;79.40;;;;;;1475764;40;20032;-69
2021/08/11 05:56:43;;;;;;;7.72;4.40;;;19.70;79.40;;;;;;1467265;40;20032;-69
2021/08/11 05:58:03;;;;;;;5.22;4.28;;;19.70;79.40;;;;;;1466577;40;20034;-69
2021/08/11 05:59:24;;;;;;;5.15;4.00;;;19.70;79.50;;;;;;1472500;40;20278;-69
2021/08/11 06:00:45;;;;;;;5.88;5.03;;;19.70;79.50;;;;;;1470494;40;20030;-69
2021/08/11 06:02:06;;;;;;;5.38;4.38;;;19.70;79.50;;;;;;1477833;40;20320;-69
2021/08/11 06:03:27;;;;;;;5.50;4.90;;;19.70;79.40;;;;;;1474984;40;20114;-69
2021/08/11 06:04:48;;;;;;;5.70;4.70;;;19.80;79.60;;;;;;1464467;40;20026;-69
2021/08/11 06:06:10;;;;;;;8.23;5.07;;;19.80;79.60;;;;;;1463882;40;20026;-69
2021/08/11 06:07:31;;;;;;;5.47;4.75;;;19.80;79.60;;;;;;1465754;40;20022;-69
2021/08/11 06:08:51;;;;;;;5.45;4.95;;;19.80;79.50;;;;;;1483176;40;20340;-69
2021/08/11 06:10:13;;;;;;;8.27;5.20;;;19.80;79.50;;;;;;1476146;40;20033;-69
2021/08/11 06:11:34;;;;;;;7.30;5.00;;;19.80;79.50;;;;;;1467241;40;20621;-69
2021/08/11 06:12:54;;;;;;;5.93;5.05;;;19.90;79.60;;;;;;1463249;40;20030;-69
2021/08/11 06:14:15;;;;;;;6.88;5.15;;;19.90;79.60;;;;;;1462799;40;20112;-69
2021/08/11 06:15:36;;;;;;;5.93;4.93;;;19.90;79.60;;;;;;1461803;40;20046;-69
2021/08/11 06:16:57;;;;;;;9.20;5.53;;;19.90;79.60;;;;;;1464353;40;20419;-69
2021/08/11 06:18:18;;;;;;;6.18;5.13;;;19.90;79.60;;;;;;1479649;40;20025;-69
2021/08/11 06:19:39;;;;;;;6.72;5.38;;;19.90;79.60;;;;;;1473369;40;20066;-69
2021/08/11 06:21:00;;;;;;;6.10;5.50;;;19.90;79.70;;;;;;1464874;40;20035;-69
2021/08/11 06:22:22;;;;;;;5.85;4.47;;;19.90;79.70;;;;;;1462270;40;20031;-69
2021/08/11 06:23:43;;;;;;;6.30;4.50;;;20.00;80.40;;;;;;1465252;40;20115;-69
2021/08/11 06:25:06;;;;;;;4.80;4.20;;;20.00;79.70;;;;;;1462340;40;20031;-69
2021/08/11 06:26:27;;;;;;;7.65;5.10;;;20.00;79.70;;;;;;1463955;40;20333;-69
2021/08/11 06:27:48;;;;;;;6.35;5.75;;;20.00;79.70;;;;;;1465130;40;20037;-69
2021/08/11 06:29:09;;;;;;;5.55;4.95;;;20.00;79.70;;;;;;1462763;40;20070;-69
2021/08/11 06:30:30;;;;;;;5.90;5.15;;;20.00;79.60;;;;;;1477123;40;20640;-69
2021/08/11 06:31:50;;;;;;;7.55;5.82;;;20.00;79.70;;;;;;1465133;40;20039;-70
2021/08/11 06:33:11;;;;;;;10.35;5.72;;;20.00;79.60;;;;;;1465555;40;20038;-69
2021/08/11 06:34:32;;;;;;;9.20;5.90;;;20.00;79.50;;;;;;1470678;40;20028;-69
2021/08/11 06:35:53;;;;;;;6.40;5.47;;;20.10;79.60;;;;;;1460591;40;20026;-69
2021/08/11 06:37:14;;;;;;;6.70;5.65;;;20.10;79.50;;;;;;1462326;40;20080;-71
2021/08/11 06:38:35;;;;;;;6.80;5.60;;;20.10;79.50;;;;;;1472902;40;20016;-70
2021/08/11 06:39:56;;;;;;;7.18;5.90;;;20.10;79.60;;;;;;1461680;40;20038;-69
2021/08/11 06:41:17;;;;;;;5.97;5.38;;;20.10;79.70;;;;;;1463741;40;20015;-68
2021/08/11 06:42:38;;;;;;;6.15;5.40;;;20.10;79.90;;;;;;1463145;40;20034;-69
2021/08/11 06:43:59;;;;;;;6.60;5.75;;;20.10;79.90;;;;;;1474666;40;20025;-69
2021/08/11 06:45:20;;;;;;;7.15;6.15;;;20.10;80.00;;;;;;1478842;40;20037;-69
2021/08/11 06:46:40;;;;;;;6.20;5.50;;;20.20;80.20;;;;;;1470940;40;20042;-69
2021/08/11 06:48:02;;;;;;;7.55;5.75;;;20.20;80.20;;;;;;1465688;40;20029;-69
2021/08/11 06:49:22;;;;;;;6.22;5.45;;;20.20;80.30;;;;;;1469979;40;20030;-69
2021/08/11 06:50:43;;;;;;;6.75;5.63;;;20.20;80.30;;;;;;1474117;40;20049;-69
2021/08/11 06:52:04;;;;;;;8.07;6.10;;;20.30;80.40;;;;;;1465629;40;20475;-69
2021/08/11 06:53:25;;;;;;;8.98;6.78;;;20.30;80.40;;;;;;1469164;40;20612;-69
2021/08/11 06:54:46;;;;;;;9.70;7.00;;;20.30;80.40;;;;;;1464776;40;20124;-69
2021/08/11 06:56:07;;;;;;;10.30;6.88;;;20.30;80.50;;;;;;1465779;40;20041;-69
2021/08/11 06:57:28;;;;;;;9.40;7.60;;;20.30;80.50;;;;;;1467139;40;20050;-69
2021/08/11 06:58:49;;;;;;;8.40;7.13;;;20.40;80.60;;;;;;1465620;40;20022;-69
2021/08/11 07:00:10;;;;;;;8.82;7.30;;;20.40;80.50;;;;;;1466786;40;20052;-68
2021/08/11 07:01:31;;;;;;;9.75;7.95;;;20.50;80.50;;;;;;1469770;40;20046;-68
2021/08/11 07:02:52;;;;;;;7.93;6.60;;;20.50;80.50;;;;;;1465586;40;20045;-69
2021/08/11 07:04:13;;;;;;;9.27;7.40;;;20.50;80.50;;;;;;1467771;40;20045;-68
2021/08/11 07:05:34;;;;;;;10.55;8.63;;;20.50;80.50;;;;;;1476916;40;20383;-68
2021/08/11 07:06:55;;;;;;;8.88;7.93;;;20.60;80.70;;;;;;1482176;40;20399;-70
2021/08/11 07:08:16;;;;;;;10.30;8.38;;;20.60;80.70;;;;;;1469320;40;20676;-68